createdAt,value
2023-03-10T00:01:16.689Z,98441.81
2023-03-10T00:03:44.671Z,98442.00
2023-03-10T00:06:13.854Z,98442.56
2023-03-10T00:08:41.078Z,98451.00
2023-03-10T00:11:08.163Z,98443.34
2023-03-10T00:13:35.385Z,98450.19
2023-03-10T00:16:02.570Z,98452.19
2023-03-10T00:18:29.519Z,98441.72
2023-03-10T00:20:56.219Z,98442.56
2023-03-10T00:23:23.012Z,98445.41
2023-03-10T00:25:57.638Z,98438.63
2023-03-10T00:28:25.663Z,98430.91
2023-03-10T00:31:00.652Z,98429.59
2023-03-10T00:33:27.767Z,98429.88
2023-03-10T00:36:08.429Z,98432.00
2023-03-10T00:38:36.404Z,98441.31
2023-03-10T00:41:10.486Z,98434.72
2023-03-10T00:43:38.460Z,98437.19
2023-03-10T00:46:05.997Z,98433.09
2023-03-10T00:48:32.957Z,98431.59
2023-03-10T00:50:59.686Z,98446.19
2023-03-10T00:53:26.711Z,98430.31
2023-03-10T00:56:04.423Z,98433.47
2023-03-10T00:58:32.592Z,98433.53
2023-03-10T01:01:01.062Z,98427.91
2023-03-10T01:03:28.638Z,98431.38
2023-03-10T01:05:58.162Z,98439.22
2023-03-10T01:08:25.293Z,98448.53
2023-03-10T01:10:52.182Z,98447.25
2023-03-10T01:13:19.825Z,98435.16
2023-03-10T01:15:50.914Z,98416.31
2023-03-10T01:18:19.276Z,98416.63
2023-03-10T01:20:48.017Z,98411.88
2023-03-10T01:23:24.325Z,98406.53
2023-03-10T01:25:51.647Z,98401.88
2023-03-10T01:28:19.857Z,98402.38
2023-03-10T01:30:46.980Z,98393.03
2023-03-10T01:33:13.775Z,98389.53
2023-03-10T01:35:40.804Z,98391.09
2023-03-10T01:38:08.264Z,98387.59
2023-03-10T01:40:36.152Z,98395.97
2023-03-10T01:43:22.026Z,98394.53
2023-03-10T01:45:48.993Z,98391.31
2023-03-10T01:48:17.823Z,98384.09
2023-03-10T01:50:47.212Z,98384.50
2023-03-10T01:53:15.359Z,98383.34
2023-03-10T01:55:46.592Z,98378.31
2023-03-10T01:58:15.842Z,98380.25
2023-03-10T02:00:43.443Z,98366.28
2023-03-10T02:03:20.427Z,98367.44
2023-03-10T02:05:55.281Z,98360.06
2023-03-10T02:08:23.771Z,98356.19
2023-03-10T02:10:51.565Z,98343.41
2023-03-10T02:13:18.573Z,98339.50
2023-03-10T02:15:46.166Z,98341.06
2023-03-10T02:18:14.724Z,98341.78
2023-03-10T02:20:51.499Z,98326.13
2023-03-10T02:24:04.195Z,98318.97
2023-03-10T02:26:33.928Z,98324.63
2023-03-10T02:29:02.178Z,98313.84
2023-03-10T02:31:29.930Z,98316.09
2023-03-10T02:33:57.386Z,98310.72
2023-03-10T02:36:24.825Z,98308.03
2023-03-10T02:38:52.240Z,98308.78
2023-03-10T02:41:28.868Z,98306.53
2023-03-10T02:43:58.453Z,98300.19
2023-03-10T02:46:27.652Z,98297.16
2023-03-10T02:48:55.865Z,98306.84
2023-03-10T02:51:34.092Z,98305.38
2023-03-10T02:54:06.221Z,98299.06
2023-03-10T02:56:34.292Z,98296.81
2023-03-10T02:59:01.459Z,98297.56
2023-03-10T03:01:30.406Z,98296.44
2023-03-10T03:03:57.922Z,98287.41
2023-03-10T03:06:26.202Z,98287.66
2023-03-10T03:08:53.116Z,98290.22
2023-03-10T03:11:22.244Z,98287.13
2023-03-10T03:13:49.212Z,98288.66
2023-03-10T03:16:16.224Z,98275.09
2023-03-10T03:18:45.185Z,98281.72
2023-03-10T03:21:18.132Z,98264.66
2023-03-10T03:23:47.288Z,98265.44
2023-03-10T03:26:27.268Z,98263.47
2023-03-10T03:29:14.349Z,98260.38
2023-03-10T03:31:41.866Z,98254.94
2023-03-10T03:34:20.791Z,98256.03
2023-03-10T03:36:50.336Z,98258.06
2023-03-10T03:39:22.721Z,98257.28
2023-03-10T03:41:57.242Z,98255.59
2023-03-10T03:44:28.017Z,98250.22
2023-03-10T03:46:55.831Z,98258.03
2023-03-10T03:49:23.763Z,98250.19
2023-03-10T03:51:50.845Z,98251.31
2023-03-10T03:54:18.167Z,98258.31
2023-03-10T03:56:45.129Z,98247.50
2023-03-10T03:59:13.923Z,98255.31
2023-03-10T04:01:41.334Z,98258.63
2023-03-10T04:04:09.106Z,98250.19
2023-03-10T04:06:36.439Z,98250.63
2023-03-10T04:09:05.004Z,98240.56
2023-03-10T04:11:33.617Z,98245.97
2023-03-10T04:14:00.719Z,98237.13
2023-03-10T04:16:28.093Z,98240.06
2023-03-10T04:18:54.819Z,98239.78
2023-03-10T04:21:21.659Z,98237.69
2023-03-10T04:23:51.267Z,98239.53
2023-03-10T04:26:23.991Z,98235.56
2023-03-10T04:28:51.104Z,98236.47
2023-03-10T04:31:19.853Z,98236.75
2023-03-10T04:33:48.183Z,98234.53
2023-03-10T04:36:15.774Z,98242.28
2023-03-10T04:38:45.028Z,98235.75
2023-03-10T04:41:12.154Z,98226.56
2023-03-10T04:43:43.273Z,98224.59
2023-03-10T04:46:12.593Z,98236.09
2023-03-10T04:48:40.477Z,98225.34
2023-03-10T04:51:10.059Z,98234.56
2023-03-10T04:53:42.119Z,98229.72
2023-03-10T04:56:11.036Z,98236.19
2023-03-10T04:58:39.357Z,98236.94
2023-03-10T05:01:11.437Z,98226.00
2023-03-10T05:03:43.023Z,98238.47
2023-03-10T05:06:16.209Z,98232.31
2023-03-10T05:08:47.888Z,98232.91
2023-03-10T05:11:16.563Z,98224.13
2023-03-10T05:13:43.717Z,98229.03
2023-03-10T05:16:22.323Z,98228.81
2023-03-10T05:18:50.510Z,98236.53
2023-03-10T05:21:22.518Z,98231.16
2023-03-10T05:23:50.911Z,98223.47
2023-03-10T05:26:19.164Z,98235.97
2023-03-10T05:28:46.547Z,98242.34
2023-03-10T05:31:16.874Z,98235.47
2023-03-10T05:33:46.759Z,98240.09
2023-03-10T05:36:14.935Z,98242.00
2023-03-10T05:38:44.078Z,98234.69
2023-03-10T05:41:13.781Z,98236.09
2023-03-10T05:43:41.904Z,98234.69
2023-03-10T05:46:11.798Z,98236.66
2023-03-10T05:48:44.572Z,98234.41
2023-03-10T05:51:12.402Z,98232.41
2023-03-10T05:53:40.763Z,98244.81
2023-03-10T05:56:15.593Z,98240.78
2023-03-10T05:58:44.228Z,98248.25
2023-03-10T06:01:13.081Z,98248.56
2023-03-10T06:03:40.138Z,98259.03
2023-03-10T06:06:07.526Z,98246.75
2023-03-10T06:08:34.711Z,98248.38
2023-03-10T06:11:01.564Z,98246.69
2023-03-10T06:13:28.888Z,98245.56
2023-03-10T06:15:58.654Z,98247.00
2023-03-10T06:18:26.036Z,98248.88
2023-03-10T06:20:53.803Z,98238.81
2023-03-10T06:23:21.624Z,98245.78
2023-03-10T06:26:01.532Z,98239.31
2023-03-10T06:28:33.105Z,98233.56
2023-03-10T06:31:08.376Z,98239.28
2023-03-10T06:33:36.002Z,98237.00
2023-03-10T06:36:03.221Z,98241.59
2023-03-10T06:38:30.889Z,98239.69
2023-03-10T06:40:58.805Z,98237.66
2023-03-10T06:43:25.969Z,98231.31
2023-03-10T06:45:52.713Z,98229.53
2023-03-10T06:48:20.054Z,98237.56
2023-03-10T06:50:49.356Z,98236.88
2023-03-10T06:53:18.316Z,98236.72
2023-03-10T06:55:45.364Z,98234.38
2023-03-10T06:58:12.250Z,98237.91
2023-03-10T07:00:39.760Z,98239.56
2023-03-10T07:03:06.769Z,98234.97
2023-03-10T07:05:33.584Z,98244.75
2023-03-10T07:08:00.327Z,98243.25
2023-03-10T07:10:27.167Z,98244.78
2023-03-10T07:12:56.689Z,98248.63
2023-03-10T07:15:23.473Z,98239.69
2023-03-10T07:17:50.342Z,98247.00
2023-03-10T07:20:18.111Z,98248.63
2023-03-10T07:22:44.836Z,98251.75
2023-03-10T07:25:12.264Z,98250.56
2023-03-10T07:27:39.183Z,98261.78
2023-03-10T07:30:06.944Z,98250.44
2023-03-10T07:32:33.738Z,98255.53
2023-03-10T07:35:00.674Z,98260.72
2023-03-10T07:37:27.652Z,98256.34
2023-03-10T07:39:55.335Z,98261.69
2023-03-10T07:42:22.209Z,98260.34
2023-03-10T07:44:48.969Z,98268.34
2023-03-10T07:47:15.681Z,98262.59
2023-03-10T07:49:46.823Z,98261.00
2023-03-10T07:52:15.382Z,98264.03
2023-03-10T07:54:44.206Z,98257.72
2023-03-10T07:57:12.891Z,98254.06
2023-03-10T07:59:40.364Z,98268.00
2023-03-10T08:02:07.394Z,98269.16
2023-03-10T08:04:34.221Z,98273.78
2023-03-10T08:07:02.273Z,98279.69
2023-03-10T08:09:29.745Z,98261.28
2023-03-10T08:11:58.435Z,98260.50
2023-03-10T08:14:25.861Z,98261.31
2023-03-10T08:16:53.209Z,98256.25
2023-03-10T08:19:20.074Z,98253.97
2023-03-10T08:21:46.876Z,98256.41
2023-03-10T08:24:13.610Z,98259.53
2023-03-10T08:26:40.426Z,98264.84
2023-03-10T08:29:07.079Z,98264.53
2023-03-10T08:31:33.975Z,98258.25
2023-03-10T08:34:00.736Z,98250.06
2023-03-10T08:36:30.247Z,98247.75
2023-03-10T08:39:00.309Z,98250.50
2023-03-10T08:41:32.670Z,98250.97
2023-03-10T08:44:00.316Z,98250.13
2023-03-10T08:46:28.948Z,98238.38
2023-03-10T08:48:56.087Z,98241.19
2023-03-10T08:51:23.493Z,98233.75
2023-03-10T08:53:51.231Z,98233.78
2023-03-10T08:56:20.381Z,98223.28
2023-03-10T08:58:47.741Z,98233.34
2023-03-10T09:01:15.967Z,98244.19
2023-03-10T09:03:44.224Z,98245.75
2023-03-10T09:06:11.213Z,98243.47
2023-03-10T09:08:39.771Z,98239.97
2023-03-10T09:11:06.744Z,98233.38
2023-03-10T09:13:33.440Z,98246.59
2023-03-10T09:16:00.333Z,98240.28
2023-03-10T09:18:27.702Z,98248.66
2023-03-10T09:20:54.484Z,98242.81
2023-03-10T09:23:21.553Z,98241.88
2023-03-10T09:25:48.545Z,98243.72
2023-03-10T09:28:18.589Z,98242.53
2023-03-10T09:31:03.994Z,98242.03
2023-03-10T09:34:02.305Z,98253.81
2023-03-10T09:36:32.249Z,98239.31
2023-03-10T09:39:00.395Z,98248.81
2023-03-10T09:41:39.462Z,98245.38
2023-03-10T09:44:24.728Z,98239.13
2023-03-10T09:47:26.809Z,98238.69
2023-03-10T09:50:02.731Z,98245.06
2023-03-10T09:52:48.121Z,98239.53
2023-03-10T09:55:21.116Z,98248.84
2023-03-10T09:57:54.413Z,98259.16
2023-03-10T10:00:39.169Z,98257.72
2023-03-10T10:03:53.374Z,98272.94
2023-03-10T10:06:39.894Z,98269.13
2023-03-10T10:09:33.027Z,98280.75
2023-03-10T10:12:11.428Z,98274.63
2023-03-10T10:14:42.671Z,98285.06
2023-03-10T10:17:52.361Z,98287.94
2023-03-10T10:20:33.750Z,98291.91
2023-03-10T10:23:02.619Z,98292.81
2023-03-10T10:25:32.803Z,98296.66
2023-03-10T10:28:02.163Z,98296.56
2023-03-10T10:30:40.285Z,98302.72
2023-03-10T10:33:17.345Z,98301.94
2023-03-10T10:36:18.016Z,98298.78
2023-03-10T10:38:53.578Z,98298.88
2023-03-10T10:41:26.879Z,98300.91
2023-03-10T10:43:59.394Z,98284.28
2023-03-10T10:46:37.205Z,98272.38
2023-03-10T10:49:24.095Z,98275.41
2023-03-10T10:52:01.269Z,98280.56
2023-03-10T10:54:41.493Z,98274.63
2023-03-10T10:57:35.749Z,98290.47
2023-03-10T11:00:32.697Z,98285.16
2023-03-10T11:03:42.930Z,98302.19
2023-03-10T11:06:17.249Z,98306.31
2023-03-10T11:08:54.182Z,98318.69
2023-03-10T11:11:33.985Z,98326.56
2023-03-10T11:14:10.684Z,98340.31
2023-03-10T11:16:43.307Z,98331.41
2023-03-10T11:19:20.116Z,98336.38
2023-03-10T11:21:51.513Z,98319.06
2023-03-10T11:24:28.539Z,98315.69
2023-03-10T11:27:20.324Z,98323.34
2023-03-10T11:30:04.626Z,98312.97
2023-03-10T11:32:31.372Z,98315.19
2023-03-10T11:34:58.388Z,98304.53
2023-03-10T11:37:32.557Z,98302.28
2023-03-10T11:40:08.781Z,98297.19
2023-03-10T11:42:50.875Z,98298.25
2023-03-10T11:45:24.928Z,98307.28
2023-03-10T11:47:57.287Z,98308.47
2023-03-10T11:50:38.322Z,98320.69
2023-03-10T11:53:23.420Z,98334.13
2023-03-10T11:55:50.755Z,98330.94
2023-03-10T11:58:28.115Z,98334.81
2023-03-10T12:00:55.369Z,98336.75
2023-03-10T12:03:40.245Z,98326.03
2023-03-10T12:06:18.021Z,98345.56
2023-03-10T12:08:45.356Z,98342.47
2023-03-10T12:11:22.079Z,98344.50
2023-03-10T12:13:55.327Z,98355.09
2023-03-10T12:16:42.349Z,98365.63
2023-03-10T12:19:25.651Z,98370.59
2023-03-10T12:22:21.103Z,98381.38
2023-03-10T12:24:48.595Z,98369.81
2023-03-10T12:27:19.319Z,98389.34
2023-03-10T12:29:47.506Z,98386.94
2023-03-10T12:32:40.989Z,98396.94
2023-03-10T12:35:34.316Z,98406.13
2023-03-10T12:38:27.431Z,98409.34
2023-03-10T12:40:54.930Z,98412.59
2023-03-10T12:43:47.208Z,98426.13
2023-03-10T12:46:55.955Z,98424.03
2023-03-10T12:49:38.697Z,98416.50
2023-03-10T12:52:24.894Z,98429.66
2023-03-10T12:54:56.083Z,98412.06
2023-03-10T12:57:30.185Z,98422.50
2023-03-10T12:59:59.796Z,98426.69
2023-03-10T13:02:33.891Z,98428.22
2023-03-10T13:05:05.397Z,98419.03
2023-03-10T13:07:32.372Z,98423.41
2023-03-10T13:10:00.245Z,98425.47
2023-03-10T13:12:31.087Z,98435.19
2023-03-10T13:15:00.041Z,98436.41
2023-03-10T13:17:35.809Z,98451.31
2023-03-10T13:20:19.607Z,98460.34
2023-03-10T13:22:57.727Z,98472.28
2023-03-10T13:25:25.271Z,98491.50
2023-03-10T13:27:52.816Z,98492.81
2023-03-10T13:30:26.625Z,98495.31
2023-03-10T13:33:02.609Z,98506.44
2023-03-10T13:35:32.403Z,98505.00
2023-03-10T13:38:11.149Z,98520.53
2023-03-10T13:40:49.088Z,98529.41
2023-03-10T13:43:36.011Z,98539.25
2023-03-10T13:46:05.576Z,98546.06
2023-03-10T13:48:32.915Z,98549.66
2023-03-10T13:51:08.866Z,98550.16
2023-03-10T13:53:35.724Z,98553.84
2023-03-10T13:56:10.525Z,98574.22
2023-03-10T13:58:38.063Z,98585.28
2023-03-10T14:01:05.056Z,98581.72
2023-03-10T14:03:32.093Z,98586.25
2023-03-10T14:05:58.754Z,98600.91
2023-03-10T14:08:32.875Z,98599.28
2023-03-10T14:11:34.353Z,98603.25
2023-03-10T14:14:01.923Z,98619.16
2023-03-10T14:17:08.239Z,98657.69
2023-03-10T14:19:43.779Z,98707.13
2023-03-10T14:22:35.852Z,98737.25
2023-03-10T14:25:07.945Z,98763.56
2023-03-10T14:27:36.107Z,98779.75
2023-03-10T14:30:14.434Z,98813.06
2023-03-10T14:32:41.466Z,98826.84
2023-03-10T14:35:16.263Z,98856.31
2023-03-10T14:37:43.060Z,98877.34
2023-03-10T14:40:11.161Z,98889.44
2023-03-10T14:42:39.693Z,98917.22
2023-03-10T14:45:28.196Z,98941.47
2023-03-10T14:48:06.275Z,98967.22
2023-03-10T14:51:05.827Z,99002.59
2023-03-10T14:53:38.880Z,99022.66
2023-03-10T14:56:05.947Z,99041.25
2023-03-10T14:58:36.298Z,99052.53
2023-03-10T15:01:03.521Z,99080.44
2023-03-10T15:03:30.271Z,99097.50
2023-03-10T15:05:57.387Z,99108.22
2023-03-10T15:08:25.009Z,99125.06
2023-03-10T15:10:52.026Z,99128.78
2023-03-10T15:13:20.374Z,99149.38
2023-03-10T15:15:48.393Z,99170.28
2023-03-10T15:18:18.003Z,99200.75
2023-03-10T15:20:45.114Z,99222.38
2023-03-10T15:23:15.273Z,99269.72
2023-03-10T15:25:45.644Z,99289.00
2023-03-10T15:28:12.620Z,99309.81
2023-03-10T15:30:39.387Z,99332.88
2023-03-10T15:33:06.889Z,99346.88
2023-03-10T15:35:34.017Z,99364.09
2023-03-10T15:38:01.129Z,99372.03
2023-03-10T15:40:29.992Z,99411.81
2023-03-10T15:42:57.732Z,99423.41
2023-03-10T15:45:26.269Z,99462.44
2023-03-10T15:47:53.548Z,99458.16
2023-03-10T15:50:21.540Z,99441.56
2023-03-10T15:52:56.837Z,99465.91
2023-03-10T15:55:28.404Z,99459.44
2023-03-10T15:57:56.348Z,99478.38
2023-03-10T16:00:25.066Z,99479.91
2023-03-10T16:02:52.237Z,99508.72
2023-03-10T16:05:19.698Z,99547.31
2023-03-10T16:07:46.578Z,99554.69
2023-03-10T16:10:16.028Z,99577.06
2023-03-10T16:12:42.849Z,99589.25
2023-03-10T16:15:10.439Z,99605.22
2023-03-10T16:17:37.549Z,99593.09
2023-03-10T16:20:10.366Z,99617.16
2023-03-10T16:22:40.476Z,99632.28
2023-03-10T16:25:10.221Z,99668.72
2023-03-10T16:27:37.458Z,99661.03
2023-03-10T16:30:05.409Z,99671.34
2023-03-10T16:32:32.330Z,99660.66
2023-03-10T16:35:00.041Z,99704.53
2023-03-10T16:37:28.275Z,99700.69
2023-03-10T16:39:55.812Z,99704.00
2023-03-10T16:42:23.931Z,99675.97
2023-03-10T16:44:50.938Z,99713.09
2023-03-10T16:47:18.147Z,99719.94
2023-03-10T16:49:45.018Z,99717.00
2023-03-10T16:52:12.054Z,99716.88
2023-03-10T16:54:38.983Z,99723.03
2023-03-10T16:57:07.159Z,99730.88
2023-03-10T16:59:34.321Z,99743.13
2023-03-10T17:02:01.145Z,99765.88
2023-03-10T17:04:28.212Z,99766.63
2023-03-10T17:06:55.552Z,99780.13
2023-03-10T17:09:22.397Z,99785.03
2023-03-10T17:11:54.881Z,99807.47
2023-03-10T17:14:24.089Z,99811.16
2023-03-10T17:16:51.641Z,99828.41
2023-03-10T17:19:24.986Z,99820.47
2023-03-10T17:21:52.397Z,99828.03
2023-03-10T17:24:20.521Z,99832.88
2023-03-10T17:26:47.636Z,99852.13
2023-03-10T17:29:14.992Z,99873.53
2023-03-10T17:31:43.902Z,99875.03
2023-03-10T17:34:20.753Z,99862.00
2023-03-10T17:36:59.645Z,99877.53
2023-03-10T17:39:45.111Z,99900.53
2023-03-10T17:42:12.269Z,99916.81
2023-03-10T17:44:39.022Z,99921.72
2023-03-10T17:47:05.874Z,99936.13
2023-03-10T17:49:33.588Z,99937.03
2023-03-10T17:52:01.049Z,99953.16
2023-03-10T17:54:27.860Z,99944.53
2023-03-10T17:56:54.700Z,99950.88
2023-03-10T17:59:21.456Z,99955.50
2023-03-10T18:01:49.661Z,99970.59
2023-03-10T18:04:18.414Z,99994.53
2023-03-10T18:06:57.661Z,99991.09
2023-03-10T18:09:35.185Z,100002.25
2023-03-10T18:12:08.796Z,100018.16
2023-03-10T18:14:35.781Z,100013.41
2023-03-10T18:17:03.532Z,100025.88
2023-03-10T18:19:31.175Z,100032.63
2023-03-10T18:22:03.717Z,100051.41
2023-03-10T18:24:35.084Z,100062.34
2023-03-10T18:27:02.473Z,100047.00
2023-03-10T18:29:29.180Z,100057.47
2023-03-10T18:31:56.556Z,100071.38
2023-03-10T18:34:28.447Z,100066.84
2023-03-10T18:37:14.564Z,100072.59
2023-03-10T18:39:45.457Z,100084.59
2023-03-10T18:42:14.218Z,100093.38
2023-03-10T18:44:47.698Z,100089.88
2023-03-10T18:47:14.466Z,100095.00
2023-03-10T18:49:41.400Z,100098.94
2023-03-10T18:52:08.555Z,100108.47
2023-03-10T18:54:35.379Z,100105.22
2023-03-10T18:57:02.074Z,100088.88
2023-03-10T18:59:28.912Z,100110.16
2023-03-10T19:01:55.744Z,100119.25
2023-03-10T19:04:22.578Z,100115.47
2023-03-10T19:06:49.265Z,100136.69
2023-03-10T19:09:19.052Z,100145.03
2023-03-10T19:11:45.955Z,100141.81
2023-03-10T19:14:13.831Z,100158.06
2023-03-10T19:16:42.416Z,100154.09
2023-03-10T19:19:10.111Z,100168.91
2023-03-10T19:21:37.600Z,100157.94
2023-03-10T19:24:05.211Z,100165.22
2023-03-10T19:26:33.367Z,100153.22
2023-03-10T19:29:00.251Z,100162.06
2023-03-10T19:31:28.017Z,100178.53
2023-03-10T19:33:58.105Z,100173.38
2023-03-10T19:36:28.403Z,100176.47
2023-03-10T19:38:56.163Z,100188.53
2023-03-10T19:41:25.382Z,100177.97
2023-03-10T19:46:59.778Z,100194.00
2023-03-10T19:49:30.796Z,100197.19
2023-03-10T19:51:57.649Z,100193.06
2023-03-10T19:54:24.326Z,100208.13
2023-03-10T19:56:51.097Z,100214.34
2023-03-10T19:59:18.228Z,100211.16
2023-03-10T20:01:49.668Z,100224.88
2023-03-10T20:04:16.822Z,100228.88
2023-03-10T20:06:44.075Z,100230.75
2023-03-10T20:09:11.727Z,100240.34
2023-03-10T20:11:40.156Z,100244.22
2023-03-10T20:14:20.692Z,100258.09
2023-03-10T20:17:10.886Z,100260.00
2023-03-10T20:19:43.758Z,100272.69
2023-03-10T20:22:12.571Z,100274.38
2023-03-10T20:24:39.978Z,100269.75
2023-03-10T20:27:06.769Z,100269.53
2023-03-10T20:29:33.714Z,100281.94
2023-03-10T20:32:01.801Z,100283.66
2023-03-10T20:34:28.862Z,100281.88
2023-03-10T20:36:57.491Z,100282.97
2023-03-10T20:39:26.005Z,100281.59
2023-03-10T20:41:53.765Z,100288.16
2023-03-10T20:44:30.809Z,100299.56
2023-03-10T20:47:21.275Z,100287.13
2023-03-10T20:49:58.113Z,100290.38
2023-03-10T20:52:25.848Z,100288.22
2023-03-10T20:54:56.272Z,100279.72
2023-03-10T20:57:23.401Z,100296.09
2023-03-10T20:59:50.073Z,100297.72
2023-03-10T21:02:17.801Z,100298.31
2023-03-10T21:04:47.384Z,100299.50
2023-03-10T21:07:15.231Z,100303.47
2023-03-10T21:09:42.806Z,100308.66
2023-03-10T21:12:14.256Z,100302.63
2023-03-10T21:14:52.023Z,100312.66
2023-03-10T21:17:29.357Z,100323.06
2023-03-10T21:20:16.362Z,100331.50
2023-03-10T21:22:43.934Z,100343.78
2023-03-10T21:25:15.710Z,100346.47
2023-03-10T21:27:44.275Z,100349.94
2023-03-10T21:30:15.322Z,100356.66
2023-03-10T21:32:42.540Z,100362.50
2023-03-10T21:35:20.352Z,100354.50
2023-03-10T21:37:49.399Z,100369.19
2023-03-10T21:40:22.853Z,100369.81
2023-03-10T21:42:50.826Z,100373.75
2023-03-10T21:45:21.958Z,100370.31
2023-03-10T21:47:52.696Z,100376.25
2023-03-10T21:50:19.817Z,100389.06
2023-03-10T21:52:47.491Z,100379.88
2023-03-10T21:55:23.194Z,100388.41
2023-03-10T21:57:50.502Z,100400.97
2023-03-10T22:00:19.979Z,100396.25
2023-03-10T22:02:48.972Z,100388.72
2023-03-10T22:05:17.950Z,100398.75
2023-03-10T22:07:44.820Z,100403.47
2023-03-10T22:10:12.315Z,100387.28
2023-03-10T22:12:39.225Z,100401.31
2023-03-10T22:15:11.278Z,100384.53
2023-03-10T22:17:38.050Z,100394.38
2023-03-10T22:20:07.135Z,100391.59
2023-03-10T22:22:34.794Z,100383.22
2023-03-10T22:25:01.722Z,100397.16
2023-03-10T22:27:28.716Z,100393.25
2023-03-10T22:29:55.685Z,100392.16
2023-03-10T22:32:22.419Z,100398.38
2023-03-10T22:34:49.484Z,100405.81
2023-03-10T22:37:16.178Z,100402.16
2023-03-10T22:39:42.932Z,100412.72
2023-03-10T22:42:10.834Z,100422.94
2023-03-10T22:44:37.773Z,100423.38
2023-03-10T22:47:05.421Z,100424.44
2023-03-10T22:49:33.702Z,100420.66
2023-03-10T22:52:00.877Z,100421.72
2023-03-10T22:54:28.598Z,100425.31
2023-03-10T22:56:55.456Z,100421.50
2023-03-10T22:59:22.380Z,100439.34
2023-03-10T23:01:49.301Z,100443.38
2023-03-10T23:04:16.023Z,100440.38
2023-03-10T23:06:42.745Z,100434.00
2023-03-10T23:09:10.870Z,100433.50
2023-03-10T23:11:37.970Z,100434.72
2023-03-10T23:14:04.806Z,100445.84
2023-03-10T23:16:52.603Z,100442.34
2023-03-10T23:19:40.155Z,100451.25
2023-03-10T23:22:26.291Z,100456.84
2023-03-10T23:24:54.027Z,100452.72
2023-03-10T23:27:20.863Z,100451.94
2023-03-10T23:29:47.676Z,100450.19
2023-03-10T23:32:14.418Z,100462.41
2023-03-10T23:34:41.164Z,100456.16
2023-03-10T23:37:08.655Z,100466.81
2023-03-10T23:39:40.627Z,100477.66
2023-03-10T23:42:09.622Z,100467.47
2023-03-10T23:44:36.570Z,100474.91
2023-03-10T23:47:06.434Z,100476.25
2023-03-10T23:49:36.004Z,100468.47
2023-03-10T23:52:03.287Z,100465.19
2023-03-10T23:54:30.406Z,100462.88
2023-03-10T23:56:57.158Z,100462.16
2023-03-10T23:59:24.584Z,100458.06
